createdAt,value
2018-09-18T00:00:30.916Z,47.36
2018-09-18T00:01:30.903Z,47.16
2018-09-18T00:02:30.888Z,47.08
2018-09-18T00:03:30.878Z,47.06
2018-09-18T00:04:30.885Z,47.36
2018-09-18T00:05:30.855Z,47.18
2018-09-18T00:06:30.843Z,47.16
2018-09-18T00:07:30.835Z,47.18
2018-09-18T00:08:30.821Z,47.26
2018-09-18T00:09:30.845Z,47.16
2018-09-18T00:10:30.807Z,47.08
2018-09-18T00:11:30.800Z,47.26
2018-09-18T00:12:30.784Z,47.26
2018-09-18T00:13:30.766Z,47.26
2018-09-18T00:14:30.766Z,47.45
2018-09-18T00:15:30.746Z,47.38
2018-09-18T00:16:30.733Z,47.18
2018-09-18T00:17:30.728Z,47.28
2018-09-18T00:18:30.711Z,46.96
2018-09-18T00:19:30.731Z,47.08
2018-09-18T00:20:30.690Z,47.08
2018-09-18T00:21:30.678Z,47.18
2018-09-18T00:22:30.667Z,47.08
2018-09-18T00:23:30.676Z,47.16
2018-09-18T00:24:30.658Z,47.28
2018-09-18T00:25:30.633Z,47.16
2018-09-18T00:26:30.621Z,47.48
2018-09-18T00:27:30.614Z,47.18
2018-09-18T00:28:30.601Z,46.98
2018-09-18T00:29:30.607Z,47.08
2018-09-18T00:30:30.582Z,47.06
2018-09-18T00:31:30.590Z,47.08
2018-09-18T00:32:30.579Z,47.38
2018-09-18T00:33:30.546Z,47.18
2018-09-18T00:34:30.551Z,47.08
2018-09-18T00:35:30.527Z,47.26
2018-09-18T00:36:30.512Z,47.48
2018-09-18T00:37:30.528Z,46.98
2018-09-18T00:38:30.492Z,47.08
2018-09-18T00:39:30.496Z,47.18
2018-09-18T00:40:30.512Z,47.18
2018-09-18T00:41:30.487Z,47.06
2018-09-18T00:42:30.478Z,47.16
2018-09-18T00:43:30.436Z,47.18
2018-09-18T00:44:30.449Z,47.38
2018-09-18T00:45:30.417Z,47.38
2018-09-18T00:46:30.404Z,47.18
2018-09-18T00:47:30.392Z,46.78
2018-09-18T00:48:30.384Z,47.06
2018-09-18T00:49:30.380Z,47.26
2018-09-18T00:50:30.363Z,47.28
2018-09-18T00:51:30.352Z,47.16
2018-09-18T00:52:30.362Z,47.08
2018-09-18T00:53:30.327Z,47.08
2018-09-18T00:54:30.330Z,47.38
2018-09-18T00:55:30.318Z,47.18
2018-09-18T00:56:30.325Z,47.26
2018-09-18T00:57:30.309Z,47.18
2018-09-18T00:58:30.269Z,47.38
2018-09-18T00:59:30.262Z,47.48
2018-09-18T01:00:30.268Z,47.38
2018-09-18T01:01:30.243Z,47.48
2018-09-18T01:02:30.256Z,47.28
2018-09-18T01:03:30.218Z,46.98
2018-09-18T01:04:30.204Z,47.08
2018-09-18T01:05:30.218Z,47.08
2018-09-18T01:06:30.182Z,47.08
2018-09-18T01:07:30.171Z,46.98
2018-09-18T01:08:30.183Z,47.06
2018-09-18T01:09:30.155Z,47.38
2018-09-18T01:10:30.158Z,47.38
2018-09-18T01:11:30.134Z,47.26
2018-09-18T01:12:30.115Z,47.28
2018-09-18T01:13:30.110Z,47.28
2018-09-18T01:14:30.105Z,46.98
2018-09-18T01:15:30.100Z,47.08
2018-09-18T01:16:30.070Z,47.36
2018-09-18T01:17:30.072Z,47.28
2018-09-18T01:18:30.063Z,47.38
2018-09-18T01:19:30.036Z,46.96
2018-09-18T01:20:30.040Z,47.38
2018-09-18T01:21:30.014Z,47.28
2018-09-18T01:22:30.012Z,46.98
2018-09-18T01:23:29.998Z,47.38
2018-09-18T01:24:29.980Z,47.08
2018-09-18T01:25:29.984Z,47.28
2018-09-18T01:26:29.958Z,47.18
2018-09-18T01:27:29.948Z,47.08
2018-09-18T01:28:29.950Z,47.28
2018-09-18T01:29:29.928Z,47.08
2018-09-18T01:30:29.957Z,47.28
2018-09-18T01:31:29.919Z,46.98
2018-09-18T01:32:29.893Z,47.38
2018-09-18T01:33:29.885Z,47.38
2018-09-18T01:34:29.874Z,47.38
2018-09-18T01:35:29.875Z,47.28
2018-09-18T01:36:29.848Z,47.28
2018-09-18T01:37:29.844Z,47.38
2018-09-18T01:38:29.829Z,47.28
2018-09-18T01:39:29.817Z,47.08
2018-09-18T01:40:29.819Z,47.18
2018-09-18T01:41:29.804Z,47.08
2018-09-18T01:42:29.797Z,47.18
2018-09-18T01:43:29.781Z,47.38
2018-09-18T01:44:29.760Z,46.98
2018-09-18T01:45:29.761Z,47.08
2018-09-18T01:46:29.744Z,47.28
2018-09-18T01:47:29.728Z,47.28
2018-09-18T01:48:29.715Z,47.18
2018-09-18T01:49:29.705Z,47.18
2018-09-18T01:50:29.712Z,47.38
2018-09-18T01:51:29.700Z,46.98
2018-09-18T01:52:29.671Z,46.98
2018-09-18T01:53:29.660Z,47.28
2018-09-18T01:54:29.650Z,46.98
2018-09-18T01:55:29.650Z,47.28
2018-09-18T01:56:29.626Z,47.38
2018-09-18T01:57:29.655Z,46.98
2018-09-18T01:58:29.627Z,47.08
2018-09-18T01:59:29.601Z,47.08
2018-09-18T02:00:29.600Z,47.08
2018-09-18T02:01:29.571Z,47.28
2018-09-18T02:02:29.569Z,47.38
2018-09-18T02:03:29.550Z,47.38
2018-09-18T02:04:29.581Z,47.18
2018-09-18T02:05:29.547Z,46.98
2018-09-18T02:06:29.517Z,47.28
2018-09-18T02:07:29.515Z,47.18
2018-09-18T02:08:29.495Z,47.18
2018-09-18T02:09:29.535Z,47.18
2018-09-18T02:10:29.497Z,47.38
2018-09-18T02:11:29.463Z,47.38
2018-09-18T02:12:29.455Z,47.28
2018-09-18T02:13:29.440Z,47.48
2018-09-18T02:14:29.431Z,47.18
2018-09-18T02:15:29.446Z,47.08
2018-09-18T02:16:29.412Z,47.28
2018-09-18T02:17:29.395Z,47.28
2018-09-18T02:18:29.385Z,47.38
2018-09-18T02:19:29.373Z,47.08
2018-09-18T02:20:29.432Z,47.08
2018-09-18T02:21:29.353Z,47.28
2018-09-18T02:22:29.340Z,47.18
2018-09-18T02:23:29.336Z,47.28
2018-09-18T02:24:29.326Z,47.18
2018-09-18T02:25:29.341Z,47.08
2018-09-18T02:26:29.300Z,47.28
2018-09-18T02:27:29.299Z,47.18
2018-09-18T02:28:29.279Z,47.38
2018-09-18T02:29:29.277Z,47.08
2018-09-18T02:30:29.340Z,47.18
2018-09-18T02:31:29.255Z,47.18
2018-09-18T02:32:29.230Z,47.08
2018-09-18T02:33:29.218Z,47.28
2018-09-18T02:34:29.207Z,47.48
2018-09-18T02:35:29.201Z,47.18
2018-09-18T02:36:29.221Z,46.98
2018-09-18T02:37:29.190Z,47.18
2018-09-18T02:38:29.163Z,47.18
2018-09-18T02:39:29.151Z,47.48
2018-09-18T02:40:29.141Z,47.48
2018-09-18T02:41:29.141Z,47.48
2018-09-18T02:42:29.131Z,47.48
2018-09-18T02:43:29.118Z,47.60
2018-09-18T02:44:29.104Z,47.28
2018-09-18T02:45:29.099Z,47.38
2018-09-18T02:46:29.090Z,47.08
2018-09-18T02:47:29.063Z,47.08
2018-09-18T02:48:29.054Z,47.48
2018-09-18T02:49:29.048Z,47.48
2018-09-18T02:50:29.043Z,47.30
2018-09-18T02:51:29.044Z,47.18
2018-09-18T02:52:29.008Z,47.48
2018-09-18T02:53:28.997Z,47.08
2018-09-18T02:54:28.987Z,47.18
2018-09-18T02:55:28.974Z,47.50
2018-09-18T02:56:28.977Z,47.18
2018-09-18T02:57:28.963Z,47.38
2018-09-18T02:58:28.941Z,47.18
2018-09-18T02:59:28.933Z,47.28
2018-09-18T03:00:28.935Z,47.50
2018-09-18T03:01:28.921Z,47.48
2018-09-18T03:02:28.898Z,47.08
2018-09-18T03:03:28.894Z,47.08
2018-09-18T03:04:28.878Z,47.18
2018-09-18T03:05:28.865Z,47.08
2018-09-18T03:06:28.868Z,47.48
2018-09-18T03:07:28.842Z,47.38
2018-09-18T03:08:28.831Z,47.00
2018-09-18T03:09:28.826Z,47.08
2018-09-18T03:10:28.810Z,47.28
2018-09-18T03:11:29.004Z,47.38
2018-09-18T03:12:28.788Z,47.08
2018-09-18T03:13:28.789Z,47.38
2018-09-18T03:14:28.766Z,47.38
2018-09-18T03:15:28.759Z,47.28
2018-09-18T03:16:28.754Z,47.40
2018-09-18T03:17:28.734Z,47.18
2018-09-18T03:18:28.723Z,47.38
2018-09-18T03:19:28.710Z,47.40
2018-09-18T03:20:28.703Z,47.50
2018-09-18T03:21:28.705Z,47.38
2018-09-18T03:22:28.678Z,47.18
2018-09-18T03:23:28.692Z,47.18
2018-09-18T03:24:28.656Z,47.18
2018-09-18T03:25:28.685Z,47.08
2018-09-18T03:26:28.647Z,47.18
2018-09-18T03:27:28.725Z,47.48
2018-09-18T03:28:28.615Z,47.48
2018-09-18T03:29:28.600Z,47.38
2018-09-18T03:30:28.593Z,47.28
2018-09-18T03:31:28.590Z,47.28
2018-09-18T03:32:28.599Z,47.48
2018-09-18T03:33:28.559Z,47.28
2018-09-18T03:34:28.550Z,47.28
2018-09-18T03:35:28.624Z,47.28
2018-09-18T03:36:28.556Z,47.40
2018-09-18T03:37:28.541Z,46.98
2018-09-18T03:38:28.510Z,46.98
2018-09-18T03:39:28.494Z,47.28
2018-09-18T03:40:28.490Z,47.28
2018-09-18T03:41:28.512Z,47.08
2018-09-18T03:42:28.457Z,47.08
2018-09-18T03:43:28.450Z,47.08
2018-09-18T03:44:28.436Z,47.08
2018-09-18T03:45:28.452Z,47.08
2018-09-18T03:46:28.412Z,47.18
2018-09-18T03:47:28.420Z,47.28
2018-09-18T03:48:28.405Z,47.08
2018-09-18T03:49:28.381Z,47.38
2018-09-18T03:50:28.375Z,47.28
2018-09-18T03:51:28.360Z,47.08
2018-09-18T03:52:28.360Z,47.08
2018-09-18T03:53:28.363Z,46.98
2018-09-18T03:54:28.325Z,47.50
2018-09-18T03:55:28.334Z,47.08
2018-09-18T03:56:28.304Z,47.08
2018-09-18T03:57:28.307Z,47.18
2018-09-18T03:58:28.301Z,47.08
2018-09-18T03:59:28.290Z,47.18
2018-09-18T04:00:28.350Z,47.38
2018-09-18T04:01:28.278Z,47.18
2018-09-18T04:02:28.250Z,47.10
2018-09-18T04:03:28.228Z,46.98
2018-09-18T04:04:28.238Z,47.18
2018-09-18T04:05:28.205Z,47.18
2018-09-18T04:06:28.193Z,47.28
2018-09-18T04:07:28.215Z,47.30
2018-09-18T04:08:28.176Z,47.30
2018-09-18T04:09:28.164Z,47.10
2018-09-18T04:10:28.159Z,47.28
2018-09-18T04:11:28.187Z,47.28
2018-09-18T04:12:28.145Z,47.08
2018-09-18T04:13:28.114Z,47.10
2018-09-18T04:14:28.106Z,47.08
2018-09-18T04:15:28.111Z,47.38
2018-09-18T04:16:28.117Z,47.08
2018-09-18T04:17:28.145Z,47.28
2018-09-18T04:18:28.063Z,47.18
2018-09-18T04:19:28.054Z,47.28
2018-09-18T04:20:28.041Z,47.38
2018-09-18T04:21:28.042Z,47.08
2018-09-18T04:22:28.047Z,47.28
2018-09-18T04:23:28.008Z,47.18
2018-09-18T04:24:28.027Z,47.08
2018-09-18T04:25:27.992Z,47.08
2018-09-18T04:26:27.973Z,47.28
2018-09-18T04:27:27.985Z,47.40
2018-09-18T04:28:27.951Z,47.18
2018-09-18T04:29:27.943Z,47.28
2018-09-18T04:30:27.930Z,47.18
2018-09-18T04:31:27.917Z,47.08
2018-09-18T04:32:27.940Z,47.08
2018-09-18T04:33:27.896Z,47.38
2018-09-18T04:34:27.884Z,47.08
2018-09-18T04:35:27.873Z,47.08
2018-09-18T04:36:27.864Z,47.18
2018-09-18T04:37:27.885Z,47.28
2018-09-18T04:38:27.843Z,47.20
2018-09-18T04:39:27.828Z,47.38
2018-09-18T04:40:27.818Z,47.18
2018-09-18T04:41:27.817Z,47.18
2018-09-18T04:42:27.853Z,47.08
2018-09-18T04:43:27.796Z,47.18
2018-09-18T04:44:27.776Z,47.28
2018-09-18T04:45:27.774Z,47.28
2018-09-18T04:46:27.759Z,47.28
2018-09-18T04:47:27.754Z,47.08
2018-09-18T04:48:27.738Z,47.38
2018-09-18T04:49:27.730Z,47.08
2018-09-18T04:50:27.711Z,47.18
2018-09-18T04:51:27.742Z,47.08
2018-09-18T04:52:27.698Z,47.30
2018-09-18T04:53:27.678Z,47.20
2018-09-18T04:54:27.672Z,47.20
2018-09-18T04:55:27.678Z,47.30
2018-09-18T04:56:27.643Z,47.20
2018-09-18T04:57:27.659Z,47.00
2018-09-18T04:58:27.621Z,47.40
2018-09-18T04:59:27.613Z,47.30
2018-09-18T05:00:27.604Z,47.20
2018-09-18T05:01:27.608Z,47.40
2018-09-18T05:02:27.580Z,47.40
2018-09-18T05:03:27.589Z,47.30
2018-09-18T05:04:27.554Z,47.00
2018-09-18T05:05:27.550Z,47.40
2018-09-18T05:06:27.584Z,47.00
2018-09-18T05:07:27.523Z,47.30
2018-09-18T05:08:27.538Z,47.20
2018-09-18T05:09:27.611Z,47.30
2018-09-18T05:10:27.493Z,47.10
2018-09-18T05:11:27.478Z,47.28
2018-09-18T05:12:27.480Z,47.20
2018-09-18T05:13:27.472Z,46.98
2018-09-18T05:14:27.445Z,47.40
2018-09-18T05:15:27.435Z,47.00
2018-09-18T05:16:27.423Z,47.30
2018-09-18T05:17:27.435Z,47.40
2018-09-18T05:18:27.437Z,47.40
2018-09-18T05:19:27.389Z,47.40
2018-09-18T05:20:27.396Z,47.10
2018-09-18T05:21:27.371Z,47.10
2018-09-18T05:22:27.361Z,47.10
2018-09-18T05:23:27.356Z,47.30
2018-09-18T05:24:27.363Z,47.28
2018-09-18T05:25:27.374Z,47.18
2018-09-18T05:26:27.311Z,47.10
2018-09-18T05:27:27.313Z,47.10
2018-09-18T05:28:27.333Z,47.10
2018-09-18T05:29:34.356Z,47.10
2018-09-18T05:30:27.274Z,47.20
2018-09-18T05:31:27.273Z,47.30
2018-09-18T05:32:34.261Z,47.20
2018-09-18T05:33:27.249Z,47.40
2018-09-18T05:34:27.225Z,47.20
2018-09-18T05:35:27.212Z,47.30
2018-09-18T05:36:27.206Z,47.10
2018-09-18T05:37:27.191Z,47.20
2018-09-18T05:38:27.193Z,47.71
2018-09-18T05:39:27.170Z,47.60
2018-09-18T05:40:27.166Z,47.50
2018-09-18T05:41:27.147Z,47.20
2018-09-18T05:42:27.135Z,47.40
2018-09-18T05:43:27.164Z,47.20
2018-09-18T05:44:27.123Z,47.60
2018-09-18T05:45:27.107Z,47.50
2018-09-18T05:46:27.112Z,47.60
2018-09-18T05:47:27.082Z,47.50
2018-09-18T05:48:27.090Z,47.10
2018-09-18T05:49:27.061Z,47.50
2018-09-18T05:50:27.055Z,47.10
2018-09-18T05:51:27.062Z,47.40
2018-09-18T05:52:27.026Z,47.10
2018-09-18T05:53:27.055Z,47.30
2018-09-18T05:54:27.008Z,47.20
2018-09-18T05:55:26.991Z,47.30
2018-09-18T05:56:26.981Z,47.30
2018-09-18T05:57:26.976Z,47.30
2018-09-18T05:58:26.972Z,47.30
2018-09-18T05:59:26.961Z,47.08
2018-09-18T06:00:26.939Z,47.30
2018-09-18T06:01:26.930Z,47.20
2018-09-18T06:02:26.916Z,47.00
2018-09-18T06:03:26.921Z,47.10
2018-09-18T06:04:26.909Z,47.30
2018-09-18T06:05:26.882Z,47.20
2018-09-18T06:06:26.887Z,47.30
2018-09-18T06:07:26.860Z,47.30
2018-09-18T06:08:26.863Z,47.30
2018-09-18T06:09:26.836Z,47.00
2018-09-18T06:10:26.835Z,47.00
2018-09-18T06:11:26.817Z,47.00
2018-09-18T06:12:26.828Z,47.20
2018-09-18T06:13:26.827Z,47.50
2018-09-18T06:14:26.812Z,47.30
2018-09-18T06:15:26.770Z,47.40
2018-09-18T06:16:26.760Z,47.30
2018-09-18T06:17:26.750Z,47.40
2018-09-18T06:18:26.767Z,47.20
2018-09-18T06:19:26.729Z,47.40
2018-09-18T06:20:26.740Z,47.00
2018-09-18T06:21:26.706Z,47.58
2018-09-18T06:22:26.695Z,47.38
2018-09-18T06:23:26.684Z,47.48
2018-09-18T06:24:26.685Z,47.18
2018-09-18T06:25:26.663Z,47.18
2018-09-18T06:26:26.650Z,47.20
2018-09-18T06:27:26.677Z,47.38
2018-09-18T06:28:26.629Z,46.98
2018-09-18T06:29:26.631Z,47.08
2018-09-18T06:30:26.605Z,46.88
2018-09-18T06:31:26.595Z,46.98
2018-09-18T06:32:26.587Z,47.68
2018-09-18T06:33:26.583Z,47.28
2018-09-18T06:34:26.574Z,47.71
2018-09-18T06:35:26.555Z,47.58
2018-09-18T06:36:26.546Z,47.28
2018-09-18T06:37:26.547Z,47.48
2018-09-18T06:38:26.519Z,46.88
2018-09-18T06:39:26.566Z,47.48
2018-09-18T06:40:26.500Z,46.98
2018-09-18T06:41:26.484Z,47.58
2018-09-18T06:42:26.587Z,46.88
2018-09-18T06:43:26.462Z,47.08
2018-09-18T06:44:26.463Z,46.88
2018-09-18T06:45:26.459Z,46.98
2018-09-18T06:46:26.430Z,46.78
2018-09-18T06:47:26.417Z,46.98
2018-09-18T06:48:26.407Z,46.88
2018-09-18T06:49:26.407Z,46.98
2018-09-18T06:50:26.390Z,46.68
2018-09-18T06:51:26.390Z,46.98
2018-09-18T06:52:26.366Z,46.78
2018-09-18T06:53:26.356Z,47.08
2018-09-18T06:54:26.369Z,46.98
2018-09-18T06:55:26.334Z,46.88
2018-09-18T06:56:26.345Z,46.78
2018-09-18T06:57:26.327Z,46.98
2018-09-18T06:58:26.303Z,46.98
2018-09-18T06:59:26.309Z,46.78
2018-09-18T07:00:26.321Z,46.88
2018-09-18T07:01:26.290Z,46.98
2018-09-18T07:02:26.250Z,46.88
2018-09-18T07:03:26.251Z,46.98
2018-09-18T07:04:26.244Z,46.88
2018-09-18T07:05:26.269Z,46.98
2018-09-18T07:06:26.249Z,46.98
2018-09-18T07:07:26.202Z,46.96
2018-09-18T07:08:26.184Z,46.96
2018-09-18T07:09:26.187Z,46.96
2018-09-18T07:10:26.168Z,46.96
2018-09-18T07:11:26.157Z,46.86
2018-09-18T07:12:26.157Z,46.88
2018-09-18T07:13:26.137Z,46.86
2018-09-18T07:14:26.135Z,46.96
2018-09-18T07:15:26.108Z,46.86
2018-09-18T07:16:26.102Z,46.86
2018-09-18T07:17:26.087Z,46.86
2018-09-18T07:18:26.074Z,46.96
2018-09-18T07:19:26.078Z,46.76
2018-09-18T07:20:26.052Z,46.86
2018-09-18T07:21:26.045Z,46.56
2018-09-18T07:22:26.046Z,46.96
2018-09-18T07:23:26.040Z,46.96
2018-09-18T07:24:26.021Z,46.84
2018-09-18T07:25:25.997Z,46.94
2018-09-18T07:26:25.988Z,46.96
2018-09-18T07:27:25.984Z,46.86
2018-09-18T07:28:25.966Z,46.73
2018-09-18T07:29:25.991Z,46.86
2018-09-18T07:30:25.953Z,46.84
2018-09-18T07:31:25.932Z,47.03
2018-09-18T07:32:25.929Z,46.86
2018-09-18T07:33:25.915Z,46.96
2018-09-18T07:34:25.913Z,47.06
2018-09-18T07:35:25.884Z,46.84
2018-09-18T07:36:25.919Z,46.84
2018-09-18T07:37:25.865Z,47.14
2018-09-18T07:38:25.855Z,47.03
2018-09-18T07:39:25.872Z,47.03
2018-09-18T07:40:25.830Z,46.84
2018-09-18T07:41:25.823Z,47.14
2018-09-18T07:42:25.812Z,46.64
2018-09-18T07:43:25.798Z,47.03
2018-09-18T07:44:25.797Z,47.33
2018-09-18T07:45:25.814Z,46.44
2018-09-18T07:46:25.782Z,47.24
2018-09-18T07:47:25.754Z,47.24
2018-09-18T07:48:25.744Z,46.44
2018-09-18T07:49:25.733Z,47.11
2018-09-18T07:50:25.741Z,46.44
2018-09-18T07:51:25.748Z,46.44
2018-09-18T07:52:25.715Z,46.51
2018-09-18T07:53:25.688Z,46.44
2018-09-18T07:54:25.719Z,46.42
2018-09-18T07:55:25.680Z,47.02
2018-09-18T07:56:25.655Z,46.42
2018-09-18T07:57:25.680Z,46.42
2018-09-18T07:58:25.632Z,46.42
2018-09-18T07:59:25.626Z,46.61
2018-09-18T08:00:25.623Z,46.42
2018-09-18T08:01:25.607Z,46.42
2018-09-18T08:02:25.587Z,46.42
2018-09-18T08:03:25.580Z,46.91
2018-09-18T08:04:25.579Z,46.51
2018-09-18T08:05:25.566Z,47.02
2018-09-18T08:06:25.547Z,46.81
2018-09-18T08:07:25.541Z,46.81
2018-09-18T08:08:25.524Z,46.72
2018-09-18T08:09:25.534Z,46.81
2018-09-18T08:10:25.515Z,47.02
2018-09-18T08:11:25.510Z,46.61
2018-09-18T08:12:25.481Z,46.99
2018-09-18T08:13:25.466Z,46.91
2018-09-18T08:14:25.459Z,46.59
2018-09-18T08:15:25.459Z,46.91
2018-09-18T08:16:25.433Z,46.91
2018-09-18T08:17:25.441Z,46.89
2018-09-18T08:18:25.419Z,46.20
2018-09-18T08:19:25.471Z,46.89
2018-09-18T08:20:25.401Z,46.79
2018-09-18T08:21:25.385Z,46.49
2018-09-18T08:22:25.373Z,46.99
2018-09-18T08:23:25.380Z,47.09
2018-09-18T08:24:25.415Z,46.49
2018-09-18T08:25:25.367Z,46.39
2018-09-18T08:26:25.324Z,47.09
2018-09-18T08:27:25.316Z,46.79
2018-09-18T08:28:25.307Z,46.59
2018-09-18T08:29:25.293Z,46.89
2018-09-18T08:30:25.323Z,46.89
2018-09-18T08:31:25.275Z,46.79
2018-09-18T08:32:25.275Z,46.89
2018-09-18T08:33:25.248Z,46.99
2018-09-18T08:34:25.239Z,46.39
2018-09-18T08:35:25.239Z,46.89
2018-09-18T08:36:25.219Z,46.49
2018-09-18T08:37:25.206Z,46.39
2018-09-18T08:38:25.217Z,46.39
2018-09-18T08:39:25.183Z,46.39
2018-09-18T08:40:25.201Z,46.69
2018-09-18T08:41:25.170Z,46.59
2018-09-18T08:42:25.152Z,46.37
2018-09-18T08:43:25.161Z,47.19
2018-09-18T08:44:25.134Z,47.19
2018-09-18T08:45:25.137Z,46.49
2018-09-18T08:46:25.122Z,47.09
2018-09-18T08:47:25.207Z,47.19
2018-09-18T08:48:25.092Z,47.29
2018-09-18T08:49:25.079Z,47.29
2018-09-18T08:50:25.101Z,47.29
2018-09-18T08:51:25.089Z,46.79
2018-09-18T08:52:25.071Z,46.59
2018-09-18T08:53:25.033Z,46.79
2018-09-18T08:54:25.084Z,46.79
2018-09-18T08:55:25.098Z,46.69
2018-09-18T08:56:25.025Z,46.89
2018-09-18T08:57:25.011Z,46.89
2018-09-18T08:58:25.024Z,46.49
2018-09-18T08:59:24.983Z,46.89
2018-09-18T09:00:24.972Z,46.99
2018-09-18T09:01:24.951Z,46.79
2018-09-18T09:02:24.936Z,46.79
2018-09-18T09:03:24.960Z,46.89
2018-09-18T09:04:24.915Z,46.89
2018-09-18T09:05:24.936Z,46.89
2018-09-18T09:06:24.942Z,46.79
2018-09-18T09:07:24.908Z,46.79
2018-09-18T09:08:24.993Z,46.69
2018-09-18T09:09:24.862Z,46.89
2018-09-18T09:10:24.871Z,46.89
2018-09-18T09:11:24.855Z,46.89
2018-09-18T09:12:24.830Z,46.79
2018-09-18T09:13:33.933Z,46.89
2018-09-18T09:14:24.878Z,46.99
2018-09-18T09:15:33.539Z,46.89
2018-09-18T09:16:24.793Z,46.79
2018-09-18T09:17:24.840Z,46.89
2018-09-18T09:18:24.881Z,46.91
2018-09-18T09:19:24.777Z,46.99
2018-09-18T09:20:24.744Z,47.51
2018-09-18T09:21:24.856Z,47.11
2018-09-18T09:22:24.820Z,46.79
2018-09-18T09:23:24.711Z,47.49
2018-09-18T09:24:24.711Z,46.99
2018-09-18T09:25:24.690Z,46.89
2018-09-18T09:26:24.803Z,46.89
2018-09-18T09:27:24.700Z,46.81
2018-09-18T09:28:24.685Z,46.81
2018-09-18T09:29:24.654Z,47.61
2018-09-18T09:30:24.657Z,46.79
2018-09-18T09:31:24.676Z,47.49
2018-09-18T09:32:24.724Z,47.49
2018-09-18T09:33:24.615Z,46.89
2018-09-18T09:34:24.603Z,46.79
2018-09-18T09:35:24.583Z,46.89
2018-09-18T09:36:24.585Z,46.99
2018-09-18T09:37:24.617Z,46.79
2018-09-18T09:38:24.564Z,47.39
2018-09-18T09:39:24.548Z,46.79
2018-09-18T09:40:24.538Z,46.89
2018-09-18T09:41:24.549Z,46.89
2018-09-18T09:42:24.542Z,46.89
2018-09-18T09:43:24.501Z,46.79
2018-09-18T09:44:24.489Z,46.89
2018-09-18T09:45:24.477Z,46.69
2018-09-18T09:46:24.478Z,46.89
2018-09-18T09:47:24.456Z,46.79
2018-09-18T09:48:24.451Z,46.79
2018-09-18T09:49:24.434Z,46.79
2018-09-18T09:50:24.423Z,46.79
2018-09-18T09:51:24.586Z,46.89
2018-09-18T09:52:24.402Z,46.89
2018-09-18T09:53:24.391Z,46.89
2018-09-18T09:54:24.387Z,46.89
2018-09-18T09:55:24.371Z,46.89
2018-09-18T09:56:24.406Z,46.89
2018-09-18T09:57:24.350Z,46.89
2018-09-18T09:58:24.338Z,46.79
2018-09-18T09:59:24.332Z,46.79
2018-09-18T10:00:24.382Z,46.89
2018-09-18T10:01:24.344Z,46.89
2018-09-18T10:02:24.300Z,46.79
2018-09-18T10:03:24.284Z,46.89
2018-09-18T10:04:24.276Z,46.89
2018-09-18T10:05:24.320Z,46.79
2018-09-18T10:06:24.268Z,46.69
2018-09-18T10:07:24.244Z,46.89
2018-09-18T10:08:24.260Z,46.99
2018-09-18T10:09:24.221Z,46.89
2018-09-18T10:10:24.274Z,46.99
2018-09-18T10:11:24.214Z,46.77
2018-09-18T10:12:24.188Z,46.89
2018-09-18T10:13:24.178Z,46.79
2018-09-18T10:14:24.220Z,46.59
2018-09-18T10:15:24.158Z,46.79
2018-09-18T10:16:24.166Z,46.79
2018-09-18T10:17:24.134Z,46.89
2018-09-18T10:18:24.125Z,46.77
2018-09-18T10:19:24.123Z,47.49
2018-09-18T10:20:24.101Z,47.47
2018-09-18T10:21:24.128Z,47.49
2018-09-18T10:22:24.080Z,46.97
2018-09-18T10:23:24.094Z,47.19
2018-09-18T10:24:24.058Z,46.97
2018-09-18T10:25:24.059Z,47.27
2018-09-18T10:26:24.141Z,47.47
2018-09-18T10:27:24.050Z,47.17
2018-09-18T10:28:24.016Z,46.37
2018-09-18T10:29:24.007Z,46.37
2018-09-18T10:30:24.056Z,46.37
2018-09-18T10:31:23.992Z,47.17
2018-09-18T10:32:23.984Z,47.07
2018-09-18T10:33:23.985Z,46.37
2018-09-18T10:34:23.958Z,46.27
2018-09-18T10:35:23.943Z,46.57
2018-09-18T10:36:23.968Z,46.27
2018-09-18T10:37:23.993Z,46.37
2018-09-18T10:38:23.920Z,46.37
2018-09-18T10:39:23.905Z,46.37
2018-09-18T10:40:23.884Z,46.37
2018-09-18T10:41:24.063Z,46.37
2018-09-18T10:42:23.901Z,46.37
2018-09-18T10:43:23.857Z,46.37
2018-09-18T10:44:23.850Z,46.25
2018-09-18T10:45:23.836Z,46.55
2018-09-18T10:46:23.852Z,46.35
2018-09-18T10:47:23.843Z,46.55
2018-09-18T10:48:23.802Z,46.75
2018-09-18T10:49:23.808Z,46.35
2018-09-18T10:50:23.778Z,46.84
2018-09-18T10:51:23.769Z,46.45
2018-09-18T10:52:23.772Z,46.84
2018-09-18T10:53:23.752Z,46.84
2018-09-18T10:54:23.783Z,46.45
2018-09-18T10:55:23.810Z,46.35
2018-09-18T10:56:23.719Z,46.35
2018-09-18T10:57:23.762Z,46.75
2018-09-18T10:58:23.693Z,46.84
2018-09-18T10:59:23.686Z,46.75
2018-09-18T11:00:23.717Z,46.84
2018-09-18T11:01:23.666Z,46.95
2018-09-18T11:02:23.813Z,46.84
2018-09-18T11:03:23.653Z,46.84
2018-09-18T11:04:23.662Z,46.65
2018-09-18T11:05:23.662Z,46.35
2018-09-18T11:06:23.610Z,46.75
2018-09-18T11:07:23.621Z,46.84
2018-09-18T11:08:23.674Z,46.72
2018-09-18T11:09:23.575Z,46.72
2018-09-18T11:10:23.625Z,46.95
2018-09-18T11:11:23.570Z,46.83
2018-09-18T11:12:23.567Z,46.84
2018-09-18T11:13:23.607Z,46.55
2018-09-18T11:14:23.518Z,46.53
2018-09-18T11:15:23.586Z,46.65
2018-09-18T11:16:23.522Z,46.65
2018-09-18T11:17:23.509Z,46.72
2018-09-18T11:18:23.584Z,46.84
2018-09-18T11:19:23.470Z,46.53
2018-09-18T11:20:23.482Z,46.62
2018-09-18T11:21:23.532Z,47.02
2018-09-18T11:22:23.577Z,46.23
2018-09-18T11:23:23.470Z,46.53
2018-09-18T11:24:23.418Z,46.33
2018-09-18T11:25:23.405Z,46.33
2018-09-18T11:26:23.394Z,46.72
2018-09-18T11:27:23.391Z,46.55
2018-09-18T11:28:23.373Z,46.33
2018-09-18T11:29:23.402Z,46.65
2018-09-18T11:30:23.371Z,46.62
2018-09-18T11:31:23.390Z,46.23
2018-09-18T11:32:23.334Z,46.33
2018-09-18T11:33:23.323Z,46.33
2018-09-18T11:34:23.319Z,46.53
2018-09-18T11:35:23.293Z,46.33
2018-09-18T11:36:23.285Z,46.72
2018-09-18T11:37:23.284Z,46.33
2018-09-18T11:38:23.259Z,46.62
2018-09-18T11:39:23.245Z,46.23
2018-09-18T11:40:23.234Z,46.35
2018-09-18T11:41:23.244Z,46.13
2018-09-18T11:42:23.225Z,46.33
2018-09-18T11:43:23.200Z,46.92
2018-09-18T11:44:23.191Z,46.35
2018-09-18T11:45:23.212Z,46.13
2018-09-18T11:46:23.168Z,46.33
2018-09-18T11:47:23.203Z,46.53
2018-09-18T11:48:23.165Z,46.13
2018-09-18T11:49:23.167Z,46.33
2018-09-18T11:50:23.145Z,46.13
2018-09-18T11:51:23.177Z,46.83
2018-09-18T11:52:23.115Z,46.42
2018-09-18T11:53:23.102Z,46.92
2018-09-18T11:54:23.167Z,46.42
2018-09-18T11:55:23.074Z,46.33
2018-09-18T11:56:23.082Z,46.92
2018-09-18T11:57:23.057Z,46.23
2018-09-18T11:58:23.054Z,46.23
2018-09-18T11:59:23.023Z,46.72
2018-09-18T12:00:23.018Z,46.83
2018-09-18T12:01:23.009Z,46.92
2018-09-18T12:02:22.989Z,46.33
2018-09-18T12:03:22.991Z,46.53
2018-09-18T12:04:22.968Z,46.83
2018-09-18T12:05:22.959Z,46.33
2018-09-18T12:06:22.972Z,47.02
2018-09-18T12:07:22.962Z,47.02
2018-09-18T12:08:22.937Z,46.72
2018-09-18T12:09:22.915Z,46.33
2018-09-18T12:10:22.904Z,46.92
2018-09-18T12:11:22.904Z,46.33
2018-09-18T12:12:22.882Z,46.53
2018-09-18T12:13:22.888Z,46.92
2018-09-18T12:14:22.905Z,46.83
2018-09-18T12:15:22.856Z,46.33
2018-09-18T12:16:22.850Z,46.23
2018-09-18T12:17:22.833Z,46.62
2018-09-18T12:18:22.845Z,46.92
2018-09-18T12:19:22.827Z,46.13
2018-09-18T12:20:22.796Z,46.92
2018-09-18T12:21:22.785Z,46.13
2018-09-18T12:22:22.918Z,46.53
2018-09-18T12:23:22.775Z,46.33
2018-09-18T12:24:22.757Z,46.33
2018-09-18T12:25:22.740Z,46.62
2018-09-18T12:26:22.731Z,46.33
2018-09-18T12:27:22.731Z,46.72
2018-09-18T12:28:22.724Z,46.53
2018-09-18T12:29:22.724Z,46.42
2018-09-18T12:30:22.691Z,46.83
2018-09-18T12:31:22.677Z,46.83
2018-09-18T12:32:22.666Z,46.62
2018-09-18T12:33:22.693Z,46.62
2018-09-18T12:34:22.644Z,46.92
2018-09-18T12:35:22.659Z,46.83
2018-09-18T12:36:22.622Z,46.72
2018-09-18T12:37:22.610Z,46.92
2018-09-18T12:38:22.612Z,46.72
2018-09-18T12:39:22.589Z,46.83
2018-09-18T12:40:22.597Z,46.83
2018-09-18T12:41:22.722Z,46.83
2018-09-18T12:42:22.735Z,46.33
2018-09-18T12:43:22.557Z,46.33
2018-09-18T12:44:22.556Z,46.42
2018-09-18T12:45:22.527Z,46.33
2018-09-18T12:46:22.523Z,46.83
2018-09-18T12:47:22.508Z,46.53
2018-09-18T12:48:22.538Z,46.92
2018-09-18T12:49:29.589Z,46.72
2018-09-18T12:50:22.711Z,46.83
2018-09-18T12:51:22.460Z,46.83
2018-09-18T12:52:22.466Z,46.42